createdAt,value
2022-09-27T00:01:03.872Z,0.63
2022-09-27T00:03:31.129Z,0.82
2022-09-27T00:06:14.923Z,0.80
2022-09-27T00:08:42.658Z,0.82
2022-09-27T00:11:22.133Z,1.00
2022-09-27T00:13:49.023Z,0.90
2022-09-27T00:16:15.960Z,1.15
2022-09-27T00:18:43.006Z,0.75
2022-09-27T00:21:12.458Z,1.00
2022-09-27T00:23:40.254Z,0.93
2022-09-27T00:26:08.556Z,1.00
2022-09-27T00:28:35.471Z,1.25
2022-09-27T00:31:02.797Z,1.20
2022-09-27T00:33:29.846Z,0.80
2022-09-27T00:36:04.248Z,0.90
2022-09-27T00:38:31.030Z,0.90
2022-09-27T00:40:58.080Z,0.80
2022-09-27T00:43:25.084Z,1.02
2022-09-27T00:46:03.400Z,1.00
2022-09-27T00:48:33.001Z,1.30
2022-09-27T00:51:04.079Z,1.10
2022-09-27T00:54:01.060Z,0.98
2022-09-27T00:56:30.586Z,0.80
2022-09-27T00:59:01.846Z,1.02
2022-09-27T01:01:30.594Z,0.88
2022-09-27T01:04:18.395Z,0.80
2022-09-27T01:06:45.157Z,1.20
2022-09-27T01:09:12.721Z,1.13
2022-09-27T01:11:58.100Z,0.60
2022-09-27T01:14:37.178Z,0.98
2022-09-27T01:17:22.385Z,0.80
2022-09-27T01:20:13.878Z,1.00
2022-09-27T01:22:56.928Z,1.00
2022-09-27T01:26:12.180Z,0.90
2022-09-27T01:29:05.647Z,0.95
2022-09-27T01:32:03.005Z,1.40
2022-09-27T01:34:48.132Z,1.35
2022-09-27T01:37:43.597Z,1.20
2022-09-27T01:40:49.358Z,1.42
2022-09-27T01:43:37.442Z,1.15
2022-09-27T01:46:23.062Z,1.08
2022-09-27T01:48:51.564Z,1.00
2022-09-27T01:51:35.607Z,1.50
2022-09-27T01:54:04.432Z,1.23
2022-09-27T01:56:41.509Z,1.42
2022-09-27T01:59:13.414Z,1.20
2022-09-27T02:01:45.022Z,1.38
2022-09-27T02:06:45.620Z,1.30
2022-09-27T02:09:33.859Z,1.30
2022-09-27T02:12:05.846Z,1.00
2022-09-27T02:15:02.577Z,1.20
2022-09-27T02:20:05.345Z,1.17
2022-09-27T02:22:47.701Z,1.15
2022-09-27T02:25:41.901Z,1.00
2022-09-27T02:28:22.984Z,1.05
2022-09-27T02:30:50.184Z,1.30
2022-09-27T02:33:20.445Z,1.42
2022-09-27T02:35:47.148Z,1.20
2022-09-27T02:38:14.189Z,1.23
2022-09-27T02:40:46.939Z,1.30
2022-09-27T02:43:15.999Z,1.30
2022-09-27T02:46:17.292Z,1.33
2022-09-27T02:49:03.018Z,1.10
2022-09-27T02:52:00.915Z,1.23
2022-09-27T02:54:42.240Z,1.40
2022-09-27T02:57:15.572Z,1.20
2022-09-27T03:00:06.326Z,1.48
2022-09-27T03:03:01.518Z,1.83
2022-09-27T03:05:33.016Z,1.50
2022-09-27T03:07:59.788Z,1.42
2022-09-27T03:10:28.806Z,1.52
2022-09-27T03:12:57.631Z,1.48
2022-09-27T03:15:24.499Z,1.98
2022-09-27T03:17:51.254Z,1.70
2022-09-27T03:20:17.969Z,1.63
2022-09-27T03:22:44.824Z,2.05
2022-09-27T03:25:11.806Z,1.90
2022-09-27T03:27:38.588Z,2.13
2022-09-27T03:30:06.841Z,1.92
2022-09-27T03:32:34.077Z,1.75
2022-09-27T03:35:00.801Z,1.83
2022-09-27T03:37:29.436Z,1.95
2022-09-27T03:39:56.257Z,2.03
2022-09-27T03:42:23.125Z,2.40
2022-09-27T03:44:51.298Z,2.20
2022-09-27T03:47:18.266Z,2.65
2022-09-27T03:49:45.048Z,2.22
2022-09-27T03:52:11.869Z,2.30
2022-09-27T03:54:38.564Z,2.42
2022-09-27T03:57:05.493Z,2.30
2022-09-27T03:59:32.378Z,2.38
2022-09-27T04:01:59.109Z,2.50
2022-09-27T04:04:25.927Z,2.50
2022-09-27T04:06:52.589Z,2.40
2022-09-27T04:09:19.336Z,2.33
2022-09-27T04:11:46.330Z,2.72
2022-09-27T04:14:13.344Z,2.58
2022-09-27T04:16:40.577Z,2.75
2022-09-27T04:19:08.348Z,2.50
2022-09-27T04:21:35.583Z,2.90
2022-09-27T04:24:05.342Z,2.70
2022-09-27T04:26:32.159Z,2.58
2022-09-27T04:28:59.133Z,2.83
2022-09-27T04:31:25.966Z,2.45
2022-09-27T04:33:53.884Z,2.70
2022-09-27T04:36:28.656Z,2.53
2022-09-27T04:39:00.516Z,2.53
2022-09-27T04:41:28.435Z,2.53
2022-09-27T04:43:59.149Z,2.63
2022-09-27T04:46:27.102Z,2.70
2022-09-27T04:48:53.868Z,2.60
2022-09-27T04:51:23.783Z,2.45
2022-09-27T04:53:50.496Z,2.70
2022-09-27T04:56:17.368Z,2.60
2022-09-27T04:58:44.148Z,2.95
2022-09-27T05:01:11.407Z,2.80
2022-09-27T05:03:38.986Z,2.78
2022-09-27T05:06:05.981Z,3.05
2022-09-27T05:08:33.158Z,3.10
2022-09-27T05:11:01.287Z,2.83
2022-09-27T05:13:28.067Z,2.78
2022-09-27T05:15:54.793Z,2.90
2022-09-27T05:18:21.624Z,3.00
2022-09-27T05:20:48.823Z,2.63
2022-09-27T05:23:15.651Z,2.80
2022-09-27T05:25:43.100Z,2.78
2022-09-27T05:28:10.430Z,2.85
2022-09-27T05:30:37.489Z,2.90
2022-09-27T05:33:04.480Z,2.72
2022-09-27T05:35:31.747Z,2.60
2022-09-27T05:38:00.349Z,2.85
2022-09-27T05:40:40.983Z,2.70
2022-09-27T05:43:09.188Z,2.80
2022-09-27T05:45:36.870Z,2.80
2022-09-27T05:48:04.208Z,2.47
2022-09-27T05:50:31.602Z,2.60
2022-09-27T05:52:58.368Z,2.72
2022-09-27T05:55:25.266Z,3.03
2022-09-27T05:58:00.748Z,2.78
2022-09-27T06:00:28.661Z,2.42
2022-09-27T06:03:00.643Z,2.10
2022-09-27T06:05:30.136Z,2.67
2022-09-27T06:08:02.510Z,2.58
2022-09-27T06:10:30.510Z,2.25
2022-09-27T06:13:06.187Z,2.50
2022-09-27T06:15:34.416Z,2.38
2022-09-27T06:18:18.965Z,2.83
2022-09-27T06:20:46.590Z,3.15
2022-09-27T06:23:22.408Z,3.03
2022-09-27T06:25:50.739Z,3.30
2022-09-27T06:28:18.699Z,3.13
2022-09-27T06:30:49.823Z,3.20
2022-09-27T06:33:19.711Z,2.35
2022-09-27T06:35:48.834Z,2.53
2022-09-27T06:38:18.058Z,2.40
2022-09-27T06:40:48.287Z,2.50
2022-09-27T06:43:20.455Z,2.50
2022-09-27T06:45:47.861Z,2.58
2022-09-27T06:48:17.135Z,2.55
2022-09-27T06:50:46.241Z,2.30
2022-09-27T06:53:14.777Z,2.30
2022-09-27T06:55:42.391Z,2.55
2022-09-27T06:58:31.839Z,2.28
2022-09-27T07:00:58.931Z,2.20
2022-09-27T07:03:35.399Z,2.45
2022-09-27T07:06:05.046Z,2.53
2022-09-27T07:08:32.626Z,2.10
2022-09-27T07:11:07.806Z,2.47
2022-09-27T07:13:37.258Z,2.55
2022-09-27T07:16:04.400Z,2.45
2022-09-27T07:18:31.312Z,2.28
2022-09-27T07:21:01.671Z,2.28
2022-09-27T07:23:29.121Z,2.05
2022-09-27T07:25:56.035Z,2.60
2022-09-27T07:28:22.842Z,2.22
2022-09-27T07:30:54.730Z,2.45
2022-09-27T07:33:21.593Z,2.13
2022-09-27T07:35:48.482Z,2.30
2022-09-27T07:38:16.471Z,1.90
2022-09-27T07:40:43.911Z,2.30
2022-09-27T07:43:12.156Z,2.50
2022-09-27T07:45:39.165Z,1.98
2022-09-27T07:48:08.709Z,2.00
2022-09-27T07:50:36.093Z,2.05
2022-09-27T07:53:04.898Z,2.38
2022-09-27T07:55:32.000Z,2.40
2022-09-27T07:58:07.630Z,2.20
2022-09-27T08:00:35.393Z,2.10
2022-09-27T08:03:11.341Z,2.33
2022-09-27T08:05:38.228Z,2.42
2022-09-27T08:08:05.210Z,2.50
2022-09-27T08:10:33.102Z,2.65
2022-09-27T08:13:03.486Z,2.17
2022-09-27T08:15:37.024Z,2.53
2022-09-27T08:18:03.819Z,2.72
2022-09-27T08:20:30.679Z,2.50
2022-09-27T08:22:58.164Z,3.17
2022-09-27T08:25:25.299Z,2.65
2022-09-27T08:27:57.075Z,2.92
2022-09-27T08:30:24.724Z,3.30
2022-09-27T08:32:56.183Z,3.22
2022-09-27T08:35:23.194Z,2.80
2022-09-27T08:38:00.911Z,3.25
2022-09-27T08:41:18.337Z,3.00
2022-09-27T08:44:04.999Z,3.20
2022-09-27T08:46:47.052Z,2.78
2022-09-27T08:49:36.049Z,3.08
2022-09-27T08:52:06.294Z,3.13
2022-09-27T08:54:35.987Z,3.45
2022-09-27T08:57:12.983Z,3.30
2022-09-27T09:00:11.883Z,3.40
2022-09-27T09:02:40.662Z,3.08
2022-09-27T09:05:13.412Z,2.85
2022-09-27T09:07:46.254Z,3.20
2022-09-27T09:11:09.602Z,2.67
2022-09-27T09:13:49.035Z,3.15
2022-09-27T09:16:15.986Z,2.75
2022-09-27T09:19:01.243Z,3.20
2022-09-27T09:21:57.769Z,3.10
2022-09-27T09:24:49.184Z,3.55
2022-09-27T09:27:37.668Z,3.53
2022-09-27T09:30:05.569Z,3.13
2022-09-27T09:32:48.864Z,2.92
2022-09-27T09:35:26.346Z,3.67
2022-09-27T09:37:58.767Z,3.55
2022-09-27T09:40:37.512Z,3.10
2022-09-27T09:43:18.789Z,3.60
2022-09-27T09:45:49.933Z,3.28
2022-09-27T09:48:28.219Z,3.33
2022-09-27T09:50:58.587Z,3.53
2022-09-27T09:53:50.882Z,3.35
2022-09-27T09:56:20.645Z,3.38
2022-09-27T09:58:54.316Z,3.28
2022-09-27T10:01:27.790Z,3.45
2022-09-27T10:03:57.048Z,3.35
2022-09-27T10:06:25.247Z,3.70
2022-09-27T10:08:54.901Z,3.03
2022-09-27T10:11:29.278Z,3.25
2022-09-27T10:13:56.487Z,3.67
2022-09-27T10:16:26.511Z,2.75
2022-09-27T10:19:00.172Z,2.90
2022-09-27T10:21:30.273Z,2.60
2022-09-27T10:24:12.387Z,2.53
2022-09-27T10:26:45.127Z,2.33
2022-09-27T10:29:20.921Z,2.80
2022-09-27T10:31:49.241Z,2.70
2022-09-27T10:34:26.949Z,2.63
2022-09-27T10:37:21.864Z,2.63
2022-09-27T10:39:52.123Z,2.58
2022-09-27T10:42:35.293Z,2.55
2022-09-27T10:45:33.911Z,2.28
2022-09-27T10:48:02.092Z,2.63
2022-09-27T10:50:49.486Z,2.30
2022-09-27T10:53:21.795Z,2.55
2022-09-27T10:55:51.105Z,2.40
2022-09-27T10:58:28.235Z,2.70
2022-09-27T11:01:12.536Z,3.15
2022-09-27T11:03:52.502Z,2.42
2022-09-27T11:06:25.511Z,2.30
2022-09-27T11:08:53.530Z,2.30
2022-09-27T11:11:24.766Z,3.45
2022-09-27T11:14:04.603Z,2.38
2022-09-27T11:16:48.576Z,2.25
2022-09-27T11:19:33.797Z,2.20
2022-09-27T11:22:03.771Z,2.53
2022-09-27T11:25:04.380Z,2.45
2022-09-27T11:28:15.681Z,2.55
2022-09-27T11:31:08.204Z,2.25
2022-09-27T11:33:52.936Z,2.20
2022-09-27T11:36:22.684Z,1.83
2022-09-27T11:38:54.145Z,2.80
2022-09-27T11:41:40.171Z,2.40
2022-09-27T11:44:41.200Z,2.30
2022-09-27T11:47:17.179Z,2.90
2022-09-27T11:50:18.497Z,2.47
2022-09-27T11:53:20.470Z,2.20
2022-09-27T11:56:05.047Z,1.90
2022-09-27T11:58:38.283Z,1.00
2022-09-27T12:01:17.390Z,0.32
2022-09-27T12:04:10.467Z,0.88
2022-09-27T12:07:07.826Z,0.38
2022-09-27T12:09:43.481Z,0.30
2022-09-27T12:12:19.047Z,0.30
2022-09-27T12:14:52.555Z,0.45
2022-09-27T12:17:42.239Z,0.50
2022-09-27T12:20:36.136Z,0.38
2022-09-27T12:23:26.362Z,0.35
2022-09-27T12:25:58.770Z,0.40
2022-09-27T12:28:37.190Z,0.35
2022-09-27T12:31:28.910Z,0.47
2022-09-27T12:37:12.522Z,0.25
2022-09-27T12:39:46.768Z,0.47
2022-09-27T12:42:20.231Z,0.60
2022-09-27T12:44:50.581Z,0.60
2022-09-27T12:47:30.503Z,0.40
2022-09-27T12:50:15.381Z,0.40
2022-09-27T12:52:47.421Z,0.85
2022-09-27T12:55:37.244Z,0.50
2022-09-27T12:58:27.759Z,0.73
2022-09-27T13:01:22.759Z,0.70
2022-09-27T13:04:12.378Z,0.50
2022-09-27T13:06:52.143Z,0.82
2022-09-27T13:09:54.933Z,0.70
2022-09-27T13:12:28.040Z,0.70
2022-09-27T13:15:06.657Z,1.45
2022-09-27T13:17:44.764Z,1.00
2022-09-27T13:20:36.660Z,0.80
2022-09-27T13:23:18.757Z,0.85
2022-09-27T13:25:56.433Z,0.85
2022-09-27T13:31:05.255Z,0.88
2022-09-27T13:33:49.796Z,1.10
2022-09-27T13:36:16.507Z,0.98
2022-09-27T13:39:06.014Z,0.93
2022-09-27T13:41:41.933Z,1.10
2022-09-27T13:44:41.679Z,1.00
2022-09-27T13:47:11.451Z,0.95
2022-09-27T13:49:43.380Z,0.70
2022-09-27T13:52:22.277Z,0.90
2022-09-27T13:54:56.714Z,0.65
2022-09-27T13:57:52.812Z,0.80
2022-09-27T14:00:25.360Z,0.60
2022-09-27T14:03:12.265Z,0.70
2022-09-27T14:05:46.456Z,0.80
2022-09-27T14:08:32.038Z,1.13
2022-09-27T14:11:00.489Z,0.43
2022-09-27T14:13:28.036Z,0.55
2022-09-27T14:15:56.494Z,0.63
2022-09-27T14:18:23.395Z,0.30
2022-09-27T14:20:52.388Z,0.35
2022-09-27T14:23:22.796Z,0.30
2022-09-27T14:25:52.155Z,0.40
2022-09-27T14:28:41.711Z,0.40
2022-09-27T14:31:18.905Z,0.30
2022-09-27T14:33:46.157Z,0.10
2022-09-27T14:36:45.590Z,0.22
2022-09-27T14:39:15.692Z,0.30
2022-09-27T14:41:42.595Z,0.40
2022-09-27T14:44:16.774Z,0.45
2022-09-27T14:46:43.701Z,0.45
2022-09-27T14:49:25.016Z,0.40
2022-09-27T14:51:56.384Z,0.40
2022-09-27T14:54:30.393Z,0.40
2022-09-27T14:57:00.036Z,0.30
2022-09-27T14:59:35.285Z,0.50
2022-09-27T15:02:11.606Z,0.55
2022-09-27T15:04:43.640Z,0.50
2022-09-27T15:07:11.061Z,0.43
2022-09-27T15:09:39.380Z,0.52
2022-09-27T15:12:08.608Z,0.30
2022-09-27T15:14:40.973Z,0.40
2022-09-27T15:17:16.305Z,0.40
2022-09-27T15:19:57.950Z,0.57
2022-09-27T15:22:45.674Z,0.20
2022-09-27T15:25:35.146Z,0.32
2022-09-27T15:28:06.035Z,0.35
2022-09-27T15:30:38.829Z,0.30
2022-09-27T15:33:18.172Z,0.45
2022-09-27T15:35:50.130Z,0.50
2022-09-27T15:38:19.810Z,0.40
2022-09-27T15:40:49.886Z,0.38
2022-09-27T15:43:30.895Z,0.43
2022-09-27T15:46:03.751Z,0.63
2022-09-27T15:48:37.452Z,0.40
2022-09-27T15:51:44.488Z,0.52
2022-09-27T15:54:11.381Z,0.90
2022-09-27T15:56:40.152Z,0.52
2022-09-27T15:59:33.716Z,0.35
2022-09-27T16:02:07.774Z,0.50
2022-09-27T16:04:34.974Z,0.40
2022-09-27T16:07:04.342Z,0.50
2022-09-27T16:09:31.520Z,0.30
2022-09-27T16:11:58.429Z,0.45
2022-09-27T16:14:25.135Z,0.40
2022-09-27T16:16:54.583Z,0.40
2022-09-27T16:19:21.318Z,0.40
2022-09-27T16:21:48.992Z,0.70
2022-09-27T16:24:17.189Z,0.50
2022-09-27T16:26:44.624Z,0.60
2022-09-27T16:29:13.914Z,0.50
2022-09-27T16:31:41.323Z,0.60
2022-09-27T16:34:12.891Z,1.10
2022-09-27T16:36:40.729Z,0.65
2022-09-27T16:39:10.565Z,0.43
2022-09-27T16:41:37.347Z,0.45
2022-09-27T16:44:12.110Z,0.45
2022-09-27T16:46:48.929Z,0.50
2022-09-27T16:49:34.368Z,0.60
2022-09-27T16:52:01.389Z,0.73
2022-09-27T16:54:29.748Z,0.63
2022-09-27T16:56:57.896Z,0.93
2022-09-27T16:59:27.513Z,1.00
2022-09-27T17:01:58.421Z,0.63
2022-09-27T17:04:28.694Z,0.57
2022-09-27T17:06:56.970Z,0.43
2022-09-27T17:09:24.534Z,0.40
2022-09-27T17:11:51.409Z,0.32
2022-09-27T17:14:18.679Z,0.30
2022-09-27T17:16:46.850Z,0.40
2022-09-27T17:19:14.787Z,0.52
2022-09-27T17:21:42.271Z,0.43
2022-09-27T17:24:09.589Z,0.85
2022-09-27T17:26:36.520Z,0.45
2022-09-27T17:29:04.426Z,0.40
2022-09-27T17:31:34.871Z,0.50
2022-09-27T17:34:02.536Z,0.60
2022-09-27T17:36:34.512Z,0.60
2022-09-27T17:39:01.615Z,0.50
2022-09-27T17:41:29.695Z,0.45
2022-09-27T17:43:59.027Z,0.40
2022-09-27T17:46:28.712Z,0.60
2022-09-27T17:49:15.377Z,0.77
2022-09-27T17:51:45.629Z,0.57
2022-09-27T17:54:12.404Z,0.40
2022-09-27T17:56:40.558Z,0.30
2022-09-27T17:59:08.547Z,0.30
2022-09-27T18:01:38.490Z,0.60
2022-09-27T18:04:11.165Z,0.35
2022-09-27T18:06:40.325Z,0.43
2022-09-27T18:09:08.868Z,0.40
2022-09-27T18:11:36.784Z,0.40
2022-09-27T18:14:05.077Z,0.40
2022-09-27T18:16:36.857Z,0.73
2022-09-27T18:21:31.925Z,0.43
2022-09-27T18:24:00.479Z,0.50
2022-09-27T18:26:29.109Z,0.52
2022-09-27T18:29:01.761Z,0.50
2022-09-27T18:31:28.642Z,1.10
2022-09-27T18:33:57.008Z,0.93
2022-09-27T18:36:25.531Z,1.15
2022-09-27T18:39:01.016Z,1.15
2022-09-27T18:41:30.675Z,1.17
2022-09-27T18:43:59.778Z,1.40
2022-09-27T18:46:37.246Z,1.52
2022-09-27T18:51:33.018Z,1.65
2022-09-27T18:54:02.561Z,1.85
2022-09-27T18:56:30.130Z,1.85
2022-09-27T18:58:57.433Z,2.88
2022-09-27T19:01:25.798Z,2.88
2022-09-27T19:03:52.999Z,2.72
2022-09-27T19:06:23.694Z,3.00
2022-09-27T19:08:58.671Z,3.00
2022-09-27T19:11:26.504Z,3.10
2022-09-27T19:13:55.765Z,3.03
2022-09-27T19:16:23.733Z,2.90
2022-09-27T19:18:51.383Z,3.13
2022-09-27T19:21:21.890Z,3.17
2022-09-27T19:23:49.892Z,2.83
2022-09-27T19:26:19.561Z,3.05
2022-09-27T19:28:47.284Z,3.22
2022-09-27T19:31:17.734Z,3.13
2022-09-27T19:33:45.194Z,3.20
2022-09-27T19:36:17.757Z,3.15
2022-09-27T19:38:44.990Z,3.40
2022-09-27T19:41:14.390Z,3.75
2022-09-27T19:43:41.850Z,3.42
2022-09-27T19:46:15.250Z,3.30
2022-09-27T19:48:43.480Z,3.25
2022-09-27T19:51:15.962Z,3.15
2022-09-27T19:53:43.651Z,3.13
2022-09-27T19:56:12.108Z,3.28
2022-09-27T19:58:40.246Z,3.17
2022-09-27T20:01:08.424Z,3.08
2022-09-27T20:03:37.441Z,2.85
2022-09-27T20:06:06.957Z,3.13
2022-09-27T20:08:34.128Z,2.90
2022-09-27T20:11:10.280Z,2.88
2022-09-27T20:13:38.539Z,2.83
2022-09-27T20:16:07.981Z,2.83
2022-09-27T20:18:38.753Z,2.90
2022-09-27T20:21:06.056Z,3.15
2022-09-27T20:23:34.329Z,3.17
2022-09-27T20:26:10.188Z,3.38
2022-09-27T20:28:42.279Z,2.85
2022-09-27T20:31:13.321Z,2.90
2022-09-27T20:33:44.084Z,3.25
2022-09-27T20:36:10.960Z,2.90
2022-09-27T20:38:38.178Z,3.00
2022-09-27T20:41:06.140Z,3.08
2022-09-27T20:43:33.264Z,2.95
2022-09-27T20:46:08.066Z,3.00
2022-09-27T20:48:35.676Z,3.13
2022-09-27T20:51:04.854Z,3.33
2022-09-27T20:53:32.818Z,2.88
2022-09-27T20:56:02.764Z,3.13
2022-09-27T20:58:31.169Z,3.58
2022-09-27T21:01:05.412Z,3.25
2022-09-27T21:03:32.272Z,3.20
2022-09-27T21:05:59.039Z,3.13
2022-09-27T21:08:29.388Z,3.63
2022-09-27T21:10:56.082Z,3.30
2022-09-27T21:13:22.951Z,3.28
2022-09-27T21:15:49.734Z,4.22
2022-09-27T21:18:16.614Z,3.70
2022-09-27T21:20:43.344Z,3.88
2022-09-27T21:23:10.160Z,4.10
2022-09-27T21:25:36.826Z,4.13
2022-09-27T21:28:04.192Z,4.15
2022-09-27T21:30:31.329Z,4.72
2022-09-27T21:32:58.121Z,4.85
2022-09-27T21:35:24.908Z,4.53
2022-09-27T21:37:51.722Z,4.95
2022-09-27T21:40:18.586Z,5.63
2022-09-27T21:42:45.269Z,5.10
2022-09-27T21:45:12.357Z,5.72
2022-09-27T21:47:39.128Z,6.75
2022-09-27T21:50:06.263Z,7.13
2022-09-27T21:52:32.903Z,7.35
2022-09-27T21:55:00.250Z,6.80
2022-09-27T21:57:26.995Z,6.28
2022-09-27T21:59:53.913Z,6.80
2022-09-27T22:02:20.713Z,6.75
2022-09-27T22:04:49.385Z,6.43
2022-09-27T22:07:16.192Z,6.75
2022-09-27T22:09:42.885Z,6.60
2022-09-27T22:12:09.703Z,6.72
2022-09-27T22:14:36.454Z,7.07
2022-09-27T22:17:03.239Z,7.25
2022-09-27T22:19:29.963Z,6.10
2022-09-27T22:21:56.784Z,6.00
2022-09-27T22:24:23.670Z,5.93
2022-09-27T22:26:51.788Z,5.57
2022-09-27T22:29:18.982Z,6.00
2022-09-27T22:31:45.858Z,5.55
2022-09-27T22:34:20.836Z,6.18
2022-09-27T22:36:47.633Z,4.95
2022-09-27T22:39:14.588Z,3.90
2022-09-27T22:41:41.539Z,3.25
2022-09-27T22:44:08.546Z,3.00
2022-09-27T22:46:35.646Z,2.78
2022-09-27T22:49:02.502Z,2.22
2022-09-27T22:51:29.359Z,2.47
2022-09-27T22:53:56.054Z,2.33
2022-09-27T22:56:22.755Z,2.30
2022-09-27T22:58:49.830Z,2.10
2022-09-27T23:01:17.819Z,2.40
2022-09-27T23:03:45.715Z,4.35
2022-09-27T23:06:13.588Z,3.95
2022-09-27T23:08:40.439Z,3.92
2022-09-27T23:11:09.498Z,3.58
2022-09-27T23:13:38.280Z,4.28
2022-09-27T23:16:07.623Z,4.93
2022-09-27T23:18:34.666Z,4.35
2022-09-27T23:21:03.682Z,5.00
2022-09-27T23:23:31.702Z,4.65
2022-09-27T23:26:04.409Z,4.45
2022-09-27T23:28:31.989Z,4.00
2022-09-27T23:31:11.049Z,4.53
2022-09-27T23:33:40.427Z,4.47
2022-09-27T23:36:09.340Z,4.60
2022-09-27T23:38:37.684Z,4.50
2022-09-27T23:41:05.143Z,4.15
2022-09-27T23:43:31.729Z,4.38
2022-09-27T23:45:58.533Z,4.32
2022-09-27T23:48:26.152Z,4.22
2022-09-27T23:50:53.184Z,4.22
2022-09-27T23:53:21.366Z,4.50
2022-09-27T23:55:50.041Z,4.07
2022-09-27T23:58:17.452Z,4.05
